createdAt,value
2019-05-21T00:00:22.445Z,14.50
2019-05-21T00:02:50.905Z,14.50
2019-05-21T00:05:19.346Z,14.50
2019-05-21T00:07:47.796Z,14.60
2019-05-21T00:10:16.477Z,14.50
2019-05-21T00:12:44.937Z,14.50
2019-05-21T00:15:13.505Z,14.50
2019-05-21T00:17:41.963Z,14.40
2019-05-21T00:20:10.684Z,14.40
2019-05-21T00:22:39.231Z,14.40
2019-05-21T00:25:08.238Z,14.50
2019-05-21T00:27:36.740Z,14.50
2019-05-21T00:30:41.313Z,14.50
2019-05-21T00:33:45.608Z,14.50
2019-05-21T00:36:51.901Z,14.40
2019-05-21T00:39:56.411Z,14.30
2019-05-21T00:42:30.559Z,14.30
2019-05-21T00:44:59.086Z,14.20
2019-05-21T00:47:27.521Z,14.20
2019-05-21T00:49:56.212Z,14.10
2019-05-21T00:52:24.647Z,14.10
2019-05-21T00:54:53.442Z,14.10
2019-05-21T00:57:21.887Z,14.10
2019-05-21T00:59:50.337Z,14.10
2019-05-21T01:02:18.784Z,14.10
2019-05-21T01:04:59.754Z,14.10
2019-05-21T01:07:17.394Z,14.10
2019-05-21T01:09:45.865Z,14.10
2019-05-21T01:12:14.386Z,14.00
2019-05-21T01:14:42.846Z,14.10
2019-05-21T01:17:11.400Z,14.10
2019-05-21T01:19:39.907Z,14.10
2019-05-21T01:22:08.411Z,14.10
2019-05-21T01:24:36.882Z,14.00
2019-05-21T01:27:05.379Z,14.00
2019-05-21T01:29:33.833Z,13.90
2019-05-21T01:32:02.399Z,13.80
2019-05-21T01:34:31.093Z,13.80
2019-05-21T01:36:59.583Z,13.70
2019-05-21T01:39:28.044Z,13.70
2019-05-21T01:41:56.478Z,13.70
2019-05-21T01:44:24.935Z,13.60
2019-05-21T01:46:53.381Z,13.60
2019-05-21T01:49:21.848Z,13.60
2019-05-21T01:51:50.290Z,13.50
2019-05-21T01:54:18.745Z,13.50
2019-05-21T01:56:47.191Z,13.60
2019-05-21T01:59:15.638Z,13.70
2019-05-21T02:01:44.098Z,13.70
2019-05-21T02:04:12.558Z,13.70
2019-05-21T02:06:41.061Z,13.70
2019-05-21T02:09:09.518Z,13.60
2019-05-21T02:11:37.966Z,13.60
2019-05-21T02:14:06.409Z,13.60
2019-05-21T02:16:34.869Z,13.60
2019-05-21T02:19:03.308Z,13.50
2019-05-21T02:21:31.762Z,13.40
2019-05-21T02:24:00.211Z,13.40
2019-05-21T02:26:28.679Z,13.40
2019-05-21T02:28:57.117Z,13.30
2019-05-21T02:31:25.578Z,13.30
2019-05-21T02:33:54.093Z,13.30
2019-05-21T02:36:22.559Z,13.40
2019-05-21T02:38:51.057Z,13.40
2019-05-21T02:41:19.515Z,13.40
2019-05-21T02:43:47.955Z,13.30
2019-05-21T02:46:16.417Z,13.30
2019-05-21T02:48:44.849Z,13.30
2019-05-21T02:51:13.325Z,13.30
2019-05-21T02:53:41.771Z,13.20
2019-05-21T02:56:10.223Z,13.20
2019-05-21T02:58:38.662Z,13.20
2019-05-21T03:01:20.623Z,13.20
2019-05-21T03:03:49.894Z,13.20
2019-05-21T03:06:18.365Z,13.10
2019-05-21T03:08:46.886Z,13.10
2019-05-21T03:11:15.405Z,13.20
2019-05-21T03:13:43.847Z,13.10
2019-05-21T03:16:12.297Z,13.20
2019-05-21T03:18:40.749Z,13.20
2019-05-21T03:21:09.229Z,13.20
2019-05-21T03:23:37.730Z,13.20
2019-05-21T03:26:06.182Z,13.20
2019-05-21T03:28:34.624Z,13.20
2019-05-21T03:31:03.110Z,13.20
2019-05-21T03:33:31.590Z,13.20
2019-05-21T03:36:00.039Z,13.10
2019-05-21T03:38:28.488Z,13.10
2019-05-21T03:40:56.962Z,13.10
2019-05-21T03:43:25.471Z,13.10
2019-05-21T03:45:53.922Z,13.10
2019-05-21T03:48:22.369Z,13.10
2019-05-21T03:50:50.868Z,13.10
2019-05-21T03:53:19.335Z,13.10
2019-05-21T03:55:47.846Z,13.10
2019-05-21T03:58:16.330Z,13.10
2019-05-21T04:00:44.813Z,13.10
2019-05-21T04:03:13.275Z,13.20
2019-05-21T04:05:41.708Z,13.20
2019-05-21T04:08:10.157Z,13.20
2019-05-21T04:10:39.043Z,13.20
2019-05-21T04:13:08.050Z,13.20
2019-05-21T04:15:40.289Z,13.30
2019-05-21T04:18:16.127Z,13.30
2019-05-21T04:20:44.617Z,13.40
2019-05-21T04:23:13.144Z,13.40
2019-05-21T04:25:41.596Z,13.40
2019-05-21T04:28:10.057Z,13.50
2019-05-21T04:30:38.555Z,13.50
2019-05-21T04:33:07.034Z,13.50
2019-05-21T04:35:35.463Z,13.60
2019-05-21T04:38:03.921Z,13.60
2019-05-21T04:40:32.348Z,13.60
2019-05-21T04:43:01.995Z,13.60
2019-05-21T04:45:31.099Z,13.60
2019-05-21T04:47:59.549Z,13.70
2019-05-21T04:50:27.991Z,13.70
2019-05-21T04:52:56.502Z,13.70
2019-05-21T04:55:25.017Z,13.70
2019-05-21T04:57:53.474Z,13.70
2019-05-21T05:00:21.922Z,13.80
2019-05-21T05:02:50.375Z,13.80
2019-05-21T05:05:18.887Z,13.80
2019-05-21T05:07:47.355Z,13.90
2019-05-21T05:10:15.791Z,13.90
2019-05-21T05:12:44.239Z,14.00
2019-05-21T05:15:12.961Z,14.00
2019-05-21T05:17:41.467Z,14.10
2019-05-21T05:20:10.124Z,14.30
2019-05-21T05:22:38.592Z,14.40
2019-05-21T05:25:07.173Z,14.50
2019-05-21T05:27:35.642Z,14.60
2019-05-21T05:30:09.189Z,14.60
2019-05-21T05:32:37.698Z,14.60
2019-05-21T05:35:06.577Z,14.70
2019-05-21T05:37:43.336Z,14.70
2019-05-21T05:40:08.396Z,14.80
2019-05-21T05:42:36.890Z,14.80
2019-05-21T05:45:06.541Z,15.00
2019-05-21T05:47:35.008Z,15.10
2019-05-21T05:50:06.280Z,15.20
2019-05-21T05:52:34.796Z,15.40
2019-05-21T05:55:04.249Z,15.60
2019-05-21T05:57:32.694Z,15.80
2019-05-21T06:00:01.150Z,16.00
2019-05-21T06:02:29.584Z,16.20
2019-05-21T06:04:58.064Z,16.30
2019-05-21T06:07:26.560Z,16.40
2019-05-21T06:09:55.031Z,16.50
2019-05-21T06:12:23.489Z,16.50
2019-05-21T06:14:51.998Z,16.60
2019-05-21T06:17:20.516Z,16.60
2019-05-21T06:19:48.975Z,16.70
2019-05-21T06:22:17.410Z,16.70
2019-05-21T06:24:45.942Z,16.80
2019-05-21T06:27:14.401Z,16.90
2019-05-21T06:29:42.862Z,16.90
2019-05-21T06:32:11.298Z,17.00
2019-05-21T06:34:39.810Z,17.10
2019-05-21T06:37:08.242Z,17.20
2019-05-21T06:39:36.700Z,17.30
2019-05-21T06:42:05.139Z,17.40
2019-05-21T06:44:33.592Z,17.40
2019-05-21T06:47:02.029Z,17.60
2019-05-21T06:49:30.500Z,17.60
2019-05-21T06:51:58.972Z,17.70
2019-05-21T06:54:27.474Z,17.80
2019-05-21T06:56:55.918Z,17.90
2019-05-21T06:59:24.371Z,18.00
2019-05-21T07:01:52.801Z,18.10
2019-05-21T07:04:21.253Z,18.20
2019-05-21T07:06:49.697Z,18.30
2019-05-21T07:09:18.211Z,18.30
2019-05-21T07:11:46.687Z,18.40
2019-05-21T07:14:15.167Z,18.40
2019-05-21T07:16:43.617Z,18.40
2019-05-21T07:19:12.068Z,18.50
2019-05-21T07:21:40.494Z,18.60
2019-05-21T07:24:08.960Z,18.70
2019-05-21T07:26:37.386Z,18.90
2019-05-21T07:29:06.031Z,19.00
2019-05-21T07:31:34.590Z,19.00
2019-05-21T07:34:03.105Z,19.00
2019-05-21T07:36:33.195Z,19.10
2019-05-21T07:39:01.640Z,19.20
2019-05-21T07:41:30.093Z,19.30
2019-05-21T07:43:58.530Z,19.40
2019-05-21T07:46:26.985Z,19.60
2019-05-21T07:48:55.453Z,19.80
2019-05-21T07:51:23.979Z,20.50
2019-05-21T07:53:52.411Z,21.20
2019-05-21T07:56:20.886Z,21.50
2019-05-21T07:58:49.394Z,21.70
2019-05-21T08:01:17.860Z,22.30
2019-05-21T08:03:46.306Z,22.70
2019-05-21T08:06:15.204Z,22.70
2019-05-21T08:08:45.505Z,22.20
2019-05-21T08:11:13.990Z,21.50
2019-05-21T08:13:42.450Z,21.50
2019-05-21T08:16:10.911Z,21.50
2019-05-21T08:18:39.348Z,21.30
2019-05-21T08:21:07.801Z,21.30
2019-05-21T08:23:36.247Z,21.30
2019-05-21T08:26:04.706Z,21.40
2019-05-21T08:28:33.137Z,21.30
2019-05-21T08:31:02.443Z,21.50
2019-05-21T08:33:31.012Z,21.60
2019-05-21T08:35:59.461Z,21.70
2019-05-21T08:38:27.890Z,21.70
2019-05-21T08:40:56.341Z,21.60
2019-05-21T08:43:24.770Z,21.50
2019-05-21T08:45:53.221Z,21.40
2019-05-21T08:48:21.713Z,21.50
2019-05-21T08:50:50.293Z,21.40
2019-05-21T08:53:18.804Z,21.60
2019-05-21T08:55:47.321Z,21.50
2019-05-21T08:58:15.763Z,21.40
2019-05-21T09:00:44.214Z,21.60
2019-05-21T09:03:12.646Z,21.70
2019-05-21T09:05:41.076Z,21.90
2019-05-21T09:08:09.539Z,21.90
2019-05-21T09:10:41.042Z,21.70
2019-05-21T09:13:09.494Z,21.90
2019-05-21T09:15:37.967Z,22.00
2019-05-21T09:18:06.449Z,22.20
2019-05-21T09:20:34.886Z,22.10
2019-05-21T09:23:03.329Z,21.90
2019-05-21T09:25:31.760Z,22.10
2019-05-21T09:28:00.209Z,22.30
2019-05-21T09:30:28.675Z,22.30
2019-05-21T09:32:57.175Z,22.10
2019-05-21T09:35:25.619Z,21.70
2019-05-21T09:37:54.062Z,21.40
2019-05-21T09:40:24.399Z,21.40
2019-05-21T09:42:52.935Z,21.70
2019-05-21T09:45:21.909Z,22.10
2019-05-21T09:47:50.526Z,22.30
2019-05-21T09:50:19.894Z,22.70
2019-05-21T09:52:48.411Z,23.00
2019-05-21T09:55:17.001Z,23.20
2019-05-21T09:58:03.374Z,23.40
2019-05-21T10:00:35.967Z,23.50
2019-05-21T10:03:12.157Z,23.50
2019-05-21T10:05:40.593Z,23.50
2019-05-21T10:08:09.053Z,23.50
2019-05-21T10:10:37.561Z,23.50
2019-05-21T10:13:06.021Z,23.60
2019-05-21T10:15:34.452Z,23.50
2019-05-21T10:18:02.912Z,23.40
2019-05-21T10:20:31.346Z,23.50
2019-05-21T10:22:59.785Z,23.40
2019-05-21T10:25:28.218Z,23.20
2019-05-21T10:27:57.486Z,23.00
2019-05-21T10:30:25.930Z,22.90
2019-05-21T10:32:54.444Z,22.90
2019-05-21T10:35:22.948Z,22.80
2019-05-21T10:37:55.019Z,22.70
2019-05-21T10:40:21.633Z,22.60
2019-05-21T10:42:50.086Z,22.60
2019-05-21T10:45:18.520Z,22.70
2019-05-21T10:47:46.961Z,23.00
2019-05-21T10:50:15.467Z,23.60
2019-05-21T10:52:43.959Z,23.40
2019-05-21T10:55:16.127Z,23.80
2019-05-21T10:57:45.371Z,23.90
2019-05-21T11:00:22.467Z,24.10
2019-05-21T11:02:53.414Z,24.20
2019-05-21T11:05:28.789Z,24.10
2019-05-21T11:07:56.139Z,24.20
2019-05-21T11:10:24.573Z,23.90
2019-05-21T11:12:53.026Z,23.50
2019-05-21T11:15:21.549Z,23.30
2019-05-21T11:18:09.118Z,23.40
2019-05-21T11:20:20.298Z,23.50
2019-05-21T11:22:48.737Z,23.60
2019-05-21T11:25:17.261Z,23.60
2019-05-21T11:27:45.690Z,23.70
2019-05-21T11:30:14.481Z,23.80
2019-05-21T11:32:42.933Z,23.70
2019-05-21T11:35:12.022Z,23.70
2019-05-21T11:37:40.443Z,23.60
2019-05-21T11:40:09.637Z,23.60
2019-05-21T11:42:38.076Z,23.40
2019-05-21T11:45:07.869Z,23.20
2019-05-21T11:47:36.301Z,23.10
2019-05-21T11:50:08.681Z,23.10
2019-05-21T11:52:37.180Z,23.20
2019-05-21T11:55:06.363Z,23.30
2019-05-21T11:57:34.939Z,23.40
2019-05-21T12:00:05.310Z,23.50
2019-05-21T12:02:33.809Z,23.50
2019-05-21T12:05:02.332Z,23.50
2019-05-21T12:07:30.781Z,23.40
2019-05-21T12:09:59.241Z,23.40
2019-05-21T12:12:27.662Z,23.50
2019-05-21T12:14:56.127Z,23.60
2019-05-21T12:17:24.631Z,23.70
2019-05-21T12:19:53.089Z,23.90
2019-05-21T12:22:21.510Z,23.90
2019-05-21T12:24:49.962Z,24.10
2019-05-21T12:27:18.389Z,24.20
2019-05-21T12:29:46.838Z,24.30
2019-05-21T12:32:15.276Z,24.20
2019-05-21T12:34:43.719Z,24.10
2019-05-21T12:37:12.179Z,24.10
2019-05-21T12:39:40.669Z,24.20
2019-05-21T12:42:09.122Z,24.30
2019-05-21T12:44:37.663Z,24.60
2019-05-21T12:47:09.520Z,24.80
2019-05-21T12:49:36.331Z,25.10
2019-05-21T12:52:04.836Z,25.30
2019-05-21T12:54:33.294Z,25.40
2019-05-21T12:57:01.805Z,25.40
2019-05-21T12:59:30.485Z,25.50
2019-05-21T13:01:58.918Z,25.40
2019-05-21T13:04:27.345Z,25.30
2019-05-21T13:06:55.802Z,25.00
2019-05-21T13:09:32.856Z,25.00
2019-05-21T13:11:54.475Z,24.90
2019-05-21T13:14:22.902Z,24.80
2019-05-21T13:16:51.407Z,24.80
2019-05-21T13:19:19.901Z,24.60
2019-05-21T13:21:48.422Z,24.40
2019-05-21T13:24:16.932Z,24.20
2019-05-21T13:26:45.424Z,24.00
2019-05-21T13:29:13.907Z,23.90
2019-05-21T13:31:42.363Z,23.80
2019-05-21T13:34:10.805Z,23.60
2019-05-21T13:36:39.255Z,23.50
2019-05-21T13:39:08.989Z,23.40
2019-05-21T13:41:37.438Z,23.40
2019-05-21T13:44:05.857Z,23.40
2019-05-21T13:46:35.694Z,23.40
2019-05-21T13:49:04.482Z,23.30
2019-05-21T13:51:32.921Z,23.30
2019-05-21T13:54:01.377Z,23.40
2019-05-21T13:56:29.891Z,23.60
2019-05-21T13:58:58.322Z,23.80
2019-05-21T14:01:40.297Z,24.00
2019-05-21T14:03:57.003Z,24.00
2019-05-21T14:06:25.457Z,24.10
2019-05-21T14:08:53.895Z,24.20
2019-05-21T14:11:22.993Z,24.10
2019-05-21T14:13:51.422Z,24.20
2019-05-21T14:16:19.979Z,24.30
2019-05-21T14:18:48.499Z,24.40
2019-05-21T14:21:16.946Z,24.50
2019-05-21T14:23:45.460Z,24.50
2019-05-21T14:26:13.955Z,24.60
2019-05-21T14:28:42.380Z,24.70
2019-05-21T14:31:10.835Z,24.60
2019-05-21T14:33:39.295Z,24.80
2019-05-21T14:36:07.753Z,24.70
2019-05-21T14:38:36.207Z,24.70
2019-05-21T14:41:04.727Z,24.80
2019-05-21T14:43:33.161Z,24.90
2019-05-21T14:46:01.615Z,24.70
2019-05-21T14:48:30.065Z,24.80
2019-05-21T14:50:58.562Z,24.60
2019-05-21T14:53:27.021Z,24.80
2019-05-21T14:55:55.450Z,24.60
2019-05-21T14:58:23.909Z,24.50
2019-05-21T15:00:52.386Z,24.30
2019-05-21T15:03:25.253Z,24.20
2019-05-21T15:05:50.995Z,24.30
2019-05-21T15:08:19.445Z,24.40
2019-05-21T15:10:49.440Z,24.50
2019-05-21T15:13:18.059Z,24.80
2019-05-21T15:15:46.552Z,24.90
2019-05-21T15:18:21.140Z,25.00
2019-05-21T15:20:59.124Z,24.90
2019-05-21T15:23:27.699Z,25.00
2019-05-21T15:25:56.200Z,25.00
2019-05-21T15:28:24.683Z,25.00
2019-05-21T15:30:53.179Z,24.90
2019-05-21T15:33:21.635Z,24.80
2019-05-21T15:35:50.077Z,24.80
2019-05-21T15:38:18.595Z,24.60
2019-05-21T15:40:47.094Z,24.50
2019-05-21T15:43:15.554Z,24.50
2019-05-21T15:45:44.056Z,24.40
2019-05-21T15:48:12.516Z,24.20
2019-05-21T15:50:40.957Z,24.20
2019-05-21T15:53:09.469Z,24.00
2019-05-21T15:55:37.916Z,23.90
2019-05-21T15:58:06.467Z,23.80
2019-05-21T16:00:34.999Z,23.60
2019-05-21T16:03:03.441Z,23.50
2019-05-21T16:05:31.876Z,23.40
2019-05-21T16:08:00.326Z,23.30
2019-05-21T16:10:28.762Z,23.20
2019-05-21T16:12:57.236Z,23.10
2019-05-21T16:15:25.655Z,23.10
2019-05-21T16:17:54.093Z,23.00
2019-05-21T16:20:22.522Z,23.00
2019-05-21T16:22:50.951Z,23.00
2019-05-21T16:25:19.377Z,22.90
2019-05-21T16:27:47.845Z,22.80
2019-05-21T16:30:16.343Z,22.70
2019-05-21T16:32:44.797Z,22.70
2019-05-21T16:35:13.296Z,22.60
2019-05-21T16:37:41.742Z,22.60
2019-05-21T16:40:10.540Z,22.60
2019-05-21T16:42:38.979Z,22.60
2019-05-21T16:45:08.632Z,22.60
2019-05-21T16:47:45.606Z,22.60
2019-05-21T16:50:08.726Z,22.50
2019-05-21T16:52:37.850Z,22.30
2019-05-21T16:55:07.029Z,22.20
2019-05-21T16:57:35.432Z,22.20
2019-05-21T17:00:08.926Z,22.20
2019-05-21T17:02:37.358Z,22.20
2019-05-21T17:05:06.647Z,22.20
2019-05-21T17:07:35.072Z,22.10
2019-05-21T17:10:04.887Z,22.20
2019-05-21T17:12:33.311Z,22.10
2019-05-21T17:15:01.771Z,22.10
2019-05-21T17:17:30.276Z,22.10
2019-05-21T17:19:58.738Z,22.00
2019-05-21T17:22:27.170Z,22.00
2019-05-21T17:24:55.631Z,21.90
2019-05-21T17:27:24.057Z,21.80
2019-05-21T17:29:52.512Z,21.70
2019-05-21T17:32:20.954Z,21.70
2019-05-21T17:34:49.405Z,21.60
2019-05-21T17:37:17.846Z,21.50
2019-05-21T17:39:46.311Z,21.50
2019-05-21T17:42:15.969Z,21.40
2019-05-21T17:44:44.588Z,21.40
2019-05-21T17:47:13.059Z,21.40
2019-05-21T17:49:41.566Z,21.30
2019-05-21T17:52:09.988Z,21.20
2019-05-21T17:54:53.989Z,21.20
2019-05-21T17:57:08.610Z,21.10
2019-05-21T17:59:37.159Z,21.00
2019-05-21T18:02:07.683Z,21.00
2019-05-21T18:04:36.963Z,21.00
2019-05-21T18:07:05.875Z,21.00
2019-05-21T18:09:34.554Z,21.00
2019-05-21T18:12:03.069Z,21.00
2019-05-21T18:14:31.699Z,20.90
2019-05-21T18:17:00.697Z,20.90
2019-05-21T18:19:29.423Z,20.80
2019-05-21T18:21:58.025Z,20.80
2019-05-21T18:24:26.490Z,20.80
2019-05-21T18:26:54.991Z,20.70
2019-05-21T18:29:23.429Z,20.80
2019-05-21T18:31:51.931Z,20.70
2019-05-21T18:34:26.380Z,20.70
2019-05-21T18:36:54.870Z,20.70
2019-05-21T18:39:23.758Z,20.60
2019-05-21T18:41:52.177Z,20.80
2019-05-21T18:44:20.618Z,20.50
2019-05-21T18:46:49.044Z,20.50
2019-05-21T18:49:17.519Z,20.50
2019-05-21T18:51:45.951Z,20.50
2019-05-21T18:54:14.388Z,20.40
2019-05-21T18:56:42.846Z,20.50
2019-05-21T18:59:11.362Z,20.60
2019-05-21T19:01:39.820Z,20.50
2019-05-21T19:04:08.321Z,20.50
2019-05-21T19:06:36.775Z,20.40
2019-05-21T19:09:07.050Z,20.40
2019-05-21T19:11:35.577Z,20.40
2019-05-21T19:14:04.456Z,20.40
2019-05-21T19:16:32.887Z,20.40
2019-05-21T19:19:01.314Z,20.40
2019-05-21T19:21:29.769Z,20.30
2019-05-21T19:23:58.199Z,20.20
2019-05-21T19:26:26.652Z,20.20
2019-05-21T19:28:55.094Z,20.30
2019-05-21T19:31:23.542Z,20.30
2019-05-21T19:33:52.006Z,20.30
2019-05-21T19:36:20.478Z,20.20
2019-05-21T19:38:48.921Z,20.20
2019-05-21T19:41:17.394Z,20.20
2019-05-21T19:43:45.817Z,20.20
2019-05-21T19:46:14.276Z,20.10
2019-05-21T19:48:42.699Z,20.10
2019-05-21T19:51:11.181Z,19.90
2019-05-21T19:53:42.366Z,19.80
2019-05-21T19:56:10.819Z,19.70
2019-05-21T19:58:39.244Z,19.60
2019-05-21T20:01:08.342Z,19.50
2019-05-21T20:03:37.131Z,19.30
2019-05-21T20:06:06.287Z,19.30
2019-05-21T20:08:34.793Z,19.20
2019-05-21T20:11:03.701Z,19.10
2019-05-21T20:13:33.060Z,19.10
2019-05-21T20:16:02.896Z,18.80
2019-05-21T20:18:31.348Z,18.60
2019-05-21T20:21:00.834Z,18.30
2019-05-21T20:23:29.287Z,18.20
2019-05-21T20:25:58.369Z,18.00
2019-05-21T20:28:27.173Z,17.80
2019-05-21T20:30:55.602Z,17.70
2019-05-21T20:33:24.389Z,17.50
2019-05-21T20:35:53.560Z,17.40
2019-05-21T20:38:23.480Z,17.10
2019-05-21T20:40:52.657Z,16.90
2019-05-21T20:43:21.096Z,16.70
2019-05-21T20:45:50.762Z,16.60
2019-05-21T20:48:21.208Z,16.70
2019-05-21T20:50:49.645Z,16.70
2019-05-21T20:53:18.253Z,16.80
2019-05-21T20:55:46.753Z,16.80
2019-05-21T20:58:15.271Z,16.80
2019-05-21T21:00:57.483Z,16.80
2019-05-21T21:03:26.013Z,16.70
2019-05-21T21:05:54.609Z,16.60
2019-05-21T21:08:27.373Z,16.50
2019-05-21T21:10:53.637Z,16.50
2019-05-21T21:13:22.081Z,16.50
2019-05-21T21:15:50.590Z,16.40
2019-05-21T21:18:19.814Z,16.40
2019-05-21T21:20:48.386Z,16.40
2019-05-21T21:23:18.504Z,16.30
2019-05-21T21:25:46.926Z,16.30
2019-05-21T21:28:15.375Z,16.20
2019-05-21T21:30:44.078Z,16.20
2019-05-21T21:33:12.530Z,16.10
2019-05-21T21:35:41.829Z,16.20
2019-05-21T21:38:12.781Z,16.20
2019-05-21T21:40:41.223Z,16.10
2019-05-21T21:43:09.681Z,16.10
2019-05-21T21:45:38.572Z,16.10
2019-05-21T21:48:07.795Z,16.10
2019-05-21T21:50:37.465Z,16.00
2019-05-21T21:53:06.342Z,16.00
2019-05-21T21:55:35.118Z,15.90
2019-05-21T21:58:03.548Z,16.00
2019-05-21T22:00:59.820Z,16.10
2019-05-21T22:03:31.463Z,16.10
2019-05-21T22:06:01.507Z,16.20
2019-05-21T22:08:31.347Z,16.20
2019-05-21T22:11:00.268Z,16.20
2019-05-21T22:13:29.020Z,16.20
2019-05-21T22:15:58.101Z,16.20
2019-05-21T22:18:27.397Z,16.20
2019-05-21T22:20:56.212Z,16.20
2019-05-21T22:23:25.091Z,16.20
2019-05-21T22:25:53.777Z,16.30
2019-05-21T22:28:23.020Z,16.20
2019-05-21T22:30:51.849Z,16.20
2019-05-21T22:33:21.031Z,16.20
2019-05-21T22:35:49.490Z,16.20
2019-05-21T22:38:17.930Z,16.10
2019-05-21T22:40:46.378Z,16.20
2019-05-21T22:43:14.890Z,16.20
2019-05-21T22:45:43.413Z,16.10
2019-05-21T22:48:11.922Z,16.10
2019-05-21T22:50:40.438Z,16.10
2019-05-21T22:53:09.247Z,16.20
2019-05-21T22:55:37.702Z,16.10
2019-05-21T22:58:06.570Z,16.10
2019-05-21T23:00:35.512Z,16.10
2019-05-21T23:03:04.384Z,16.10
2019-05-21T23:05:32.829Z,16.10
2019-05-21T23:08:01.721Z,16.20
2019-05-21T23:10:30.259Z,16.20
2019-05-21T23:12:58.897Z,16.20
2019-05-21T23:15:27.361Z,16.20
2019-05-21T23:17:56.506Z,16.20
2019-05-21T23:20:27.883Z,16.20
2019-05-21T23:22:59.142Z,16.20
2019-05-21T23:25:27.768Z,16.20
2019-05-21T23:27:56.204Z,16.20
2019-05-21T23:30:25.055Z,16.10
2019-05-21T23:32:53.658Z,16.10
2019-05-21T23:35:22.391Z,16.10
2019-05-21T23:37:51.679Z,16.20
2019-05-21T23:40:22.069Z,16.20
2019-05-21T23:42:50.683Z,16.20
2019-05-21T23:45:19.553Z,16.20
2019-05-21T23:47:48.398Z,16.20
2019-05-21T23:50:18.163Z,16.20
2019-05-21T23:52:46.661Z,16.20
2019-05-21T23:55:15.548Z,16.20
2019-05-21T23:57:44.721Z,16.20
